createdAt,value
2022-12-25T00:02:21.541Z,7.17
2022-12-25T00:04:51.706Z,7.18
2022-12-25T00:07:22.152Z,7.18
2022-12-25T00:09:52.252Z,7.19
2022-12-25T00:12:22.984Z,7.21
2022-12-25T00:14:54.471Z,7.23
2022-12-25T00:17:24.739Z,7.24
2022-12-25T00:19:55.077Z,7.25
2022-12-25T00:22:27.137Z,7.25
2022-12-25T00:24:57.404Z,7.26
2022-12-25T00:27:27.811Z,7.26
2022-12-25T00:29:58.181Z,7.26
2022-12-25T00:51:38.624Z,7.20
2022-12-25T00:55:25.448Z,7.19
2022-12-25T00:59:11.103Z,7.18
2022-12-25T01:02:47.548Z,7.17
2022-12-25T01:05:18.786Z,7.19
2022-12-25T01:07:48.806Z,7.20
2022-12-25T01:10:24.919Z,7.20
2022-12-25T01:12:55.020Z,7.19
2022-12-25T01:15:25.488Z,7.20
2022-12-25T01:17:55.500Z,7.19
2022-12-25T01:20:25.534Z,7.19
2022-12-25T01:22:55.755Z,7.20
2022-12-25T01:25:25.729Z,7.20
2022-12-25T01:27:55.913Z,7.19
2022-12-25T01:30:25.996Z,7.20
2022-12-25T01:32:55.933Z,7.21
2022-12-25T01:35:26.724Z,7.19
2022-12-25T01:37:56.846Z,7.18
2022-12-25T01:40:27.061Z,7.19
2022-12-25T01:42:57.226Z,7.19
2022-12-25T01:45:56.448Z,7.21
2022-12-25T01:48:37.127Z,7.20
2022-12-25T01:51:19.486Z,7.18
2022-12-25T01:53:50.189Z,7.18
2022-12-25T01:56:20.765Z,7.17
2022-12-25T01:58:50.029Z,7.17
2022-12-25T02:01:20.534Z,7.15
2022-12-25T02:03:52.279Z,7.11
2022-12-25T02:06:23.086Z,7.08
2022-12-25T02:08:52.367Z,7.06
2022-12-25T02:11:40.979Z,7.03
2022-12-25T02:14:11.851Z,6.97
2022-12-25T02:16:57.414Z,6.95
2022-12-25T02:20:02.848Z,6.93
2022-12-25T02:22:46.180Z,6.89
2022-12-25T02:25:39.389Z,6.87
2022-12-25T02:28:16.649Z,6.85
2022-12-25T02:31:28.338Z,6.84
2022-12-25T02:34:14.479Z,6.82
2022-12-25T02:37:24.972Z,6.79
2022-12-25T02:40:12.696Z,6.72
2022-12-25T02:43:16.605Z,6.66
2022-12-25T02:46:13.973Z,6.59
2022-12-25T02:49:11.188Z,6.54
2022-12-25T02:52:09.514Z,6.47
2022-12-25T02:55:05.408Z,6.45
2022-12-25T02:58:09.146Z,6.42
2022-12-25T03:01:10.296Z,6.40
2022-12-25T03:04:01.707Z,6.37
2022-12-25T03:06:47.140Z,6.32
2022-12-25T03:09:46.251Z,6.28
2022-12-25T03:12:31.728Z,6.26
2022-12-25T03:15:22.393Z,6.26
2022-12-25T03:17:53.255Z,6.28
2022-12-25T03:20:42.803Z,6.30
2022-12-25T03:23:35.918Z,6.30
2022-12-25T03:26:24.919Z,6.29
2022-12-25T03:28:55.471Z,6.28
2022-12-25T03:31:54.885Z,6.26
2022-12-25T03:35:04.573Z,6.26
2022-12-25T03:37:48.445Z,6.24
2022-12-25T03:41:08.744Z,6.21
2022-12-25T03:44:05.553Z,6.16
2022-12-25T03:47:20.395Z,6.11
2022-12-25T03:50:25.250Z,6.06
2022-12-25T03:53:15.893Z,6.05
2022-12-25T03:56:05.709Z,6.04
2022-12-25T03:58:56.001Z,6.05
2022-12-25T04:01:46.826Z,6.05
2022-12-25T04:04:36.476Z,6.06
2022-12-25T04:07:26.267Z,6.08
2022-12-25T04:10:16.368Z,6.11
2022-12-25T04:13:05.198Z,6.13
2022-12-25T04:15:54.502Z,6.16
2022-12-25T04:18:44.558Z,6.17
2022-12-25T04:21:48.054Z,6.17
2022-12-25T04:24:37.542Z,6.13
2022-12-25T04:27:27.405Z,6.11
2022-12-25T04:30:17.374Z,6.06
2022-12-25T04:33:07.458Z,6.02
2022-12-25T04:35:56.168Z,6.00
2022-12-25T04:38:26.505Z,5.98
2022-12-25T04:40:56.833Z,5.98
2022-12-25T04:43:27.435Z,5.98
2022-12-25T04:45:59.493Z,5.94
2022-12-25T04:48:33.038Z,5.88
2022-12-25T04:51:14.708Z,5.85
2022-12-25T04:53:44.777Z,5.83
2022-12-25T04:56:14.843Z,5.82
2022-12-25T04:58:46.004Z,5.80
2022-12-25T05:01:16.884Z,5.79
2022-12-25T05:03:47.574Z,5.79
2022-12-25T05:06:17.686Z,5.78
2022-12-25T05:08:48.684Z,5.76
2022-12-25T05:11:18.623Z,5.75
2022-12-25T05:13:48.550Z,5.72
2022-12-25T05:16:21.110Z,5.71
2022-12-25T05:18:52.758Z,5.69
2022-12-25T05:21:22.759Z,5.66
2022-12-25T05:23:53.658Z,5.66
2022-12-25T05:26:25.734Z,5.67
2022-12-25T05:28:57.025Z,5.66
2022-12-25T05:31:27.085Z,5.63
2022-12-25T05:33:57.322Z,5.61
2022-12-25T05:36:27.667Z,5.61
2022-12-25T05:38:57.773Z,5.61
2022-12-25T05:41:33.758Z,5.61
2022-12-25T05:44:05.339Z,5.61
2022-12-25T05:46:35.376Z,5.61
2022-12-25T05:49:06.243Z,5.60
2022-12-25T05:51:36.238Z,5.57
2022-12-25T05:54:06.708Z,5.52
2022-12-25T05:56:37.535Z,5.47
2022-12-25T05:59:07.751Z,5.42
2022-12-25T06:01:37.877Z,5.39
2022-12-25T06:04:12.470Z,5.37
2022-12-25T06:06:43.577Z,5.29
2022-12-25T06:09:14.176Z,5.25
2022-12-25T06:11:43.139Z,5.27
2022-12-25T06:14:15.565Z,5.28
2022-12-25T06:16:46.079Z,5.27
2022-12-25T06:19:16.486Z,5.26
2022-12-25T06:21:46.841Z,5.27
2022-12-25T06:24:21.270Z,5.24
2022-12-25T06:26:52.061Z,5.19
2022-12-25T06:29:21.682Z,5.14
2022-12-25T06:31:57.818Z,5.09
2022-12-25T06:34:27.880Z,5.04
2022-12-25T06:36:57.897Z,5.02
2022-12-25T06:39:27.614Z,5.02
2022-12-25T06:41:57.817Z,5.03
2022-12-25T06:44:28.250Z,5.02
2022-12-25T06:46:57.078Z,4.97
2022-12-25T06:49:30.082Z,4.89
2022-12-25T06:52:00.548Z,4.86
2022-12-25T06:54:30.961Z,4.84
2022-12-25T06:57:01.348Z,4.82
2022-12-25T06:59:31.582Z,4.80
2022-12-25T07:02:01.771Z,4.79
2022-12-25T07:04:38.540Z,4.78
2022-12-25T07:07:10.050Z,4.79
2022-12-25T07:09:42.847Z,4.81
2022-12-25T07:12:23.997Z,4.82
2022-12-25T07:14:55.827Z,4.82
2022-12-25T07:17:25.408Z,4.83
2022-12-25T07:19:57.713Z,4.86
2022-12-25T07:22:29.524Z,4.90
2022-12-25T07:24:59.613Z,4.94
2022-12-25T07:27:28.541Z,4.95
2022-12-25T07:29:58.947Z,4.98
2022-12-25T07:32:31.958Z,5.00
2022-12-25T07:35:02.599Z,5.11
2022-12-25T07:37:31.606Z,5.16
2022-12-25T07:40:00.799Z,5.21
2022-12-25T07:42:32.431Z,5.26
2022-12-25T07:45:02.732Z,5.31
2022-12-25T07:47:33.153Z,5.33
2022-12-25T07:50:03.491Z,5.34
2022-12-25T07:52:38.027Z,5.38
2022-12-25T07:55:11.392Z,5.46
2022-12-25T07:57:41.147Z,5.61
2022-12-25T08:00:11.750Z,5.80
2022-12-25T08:02:45.114Z,6.00
2022-12-25T08:05:15.939Z,6.17
2022-12-25T08:07:45.808Z,6.36
2022-12-25T08:10:14.578Z,6.57
2022-12-25T08:12:44.964Z,6.77
2022-12-25T08:15:15.422Z,6.94
2022-12-25T08:17:44.987Z,7.09
2022-12-25T08:20:14.492Z,7.25
2022-12-25T08:22:44.855Z,7.34
2022-12-25T08:25:16.391Z,7.40
2022-12-25T08:27:46.265Z,7.52
2022-12-25T08:30:16.324Z,7.57
2022-12-25T08:32:46.494Z,7.65
2022-12-25T08:35:16.955Z,7.76
2022-12-25T08:37:46.863Z,7.96
2022-12-25T08:40:17.069Z,8.10
2022-12-25T08:42:47.452Z,8.22
2022-12-25T08:45:17.923Z,8.34
2022-12-25T08:47:48.322Z,8.45
2022-12-25T08:50:18.431Z,8.50
2022-12-25T08:52:48.414Z,8.55
2022-12-25T08:55:18.529Z,8.59
2022-12-25T08:57:48.568Z,8.63
2022-12-25T09:00:18.747Z,8.68
2022-12-25T09:02:49.019Z,8.77
2022-12-25T09:05:19.289Z,8.89
2022-12-25T09:07:48.284Z,9.10
2022-12-25T09:10:17.178Z,9.42
2022-12-25T09:12:46.832Z,9.69
2022-12-25T09:15:19.025Z,9.84
2022-12-25T09:17:49.369Z,10.00
2022-12-25T09:20:19.996Z,10.23
2022-12-25T09:22:49.941Z,10.34
2022-12-25T09:25:20.315Z,10.32
2022-12-25T09:27:50.255Z,10.27
2022-12-25T09:30:20.520Z,10.25
2022-12-25T09:32:50.972Z,10.29
2022-12-25T09:35:22.131Z,10.36
2022-12-25T09:37:52.421Z,10.50
2022-12-25T09:40:26.366Z,10.73
2022-12-25T09:42:57.563Z,10.78
2022-12-25T09:45:39.268Z,10.87
2022-12-25T09:48:14.402Z,10.91
2022-12-25T09:50:48.053Z,10.91
2022-12-25T09:53:29.023Z,10.91
2022-12-25T09:56:11.880Z,10.91
2022-12-25T09:58:40.778Z,11.00
2022-12-25T10:01:40.687Z,11.30
2022-12-25T10:04:40.619Z,11.78
2022-12-25T10:07:29.991Z,12.13
2022-12-25T10:10:43.269Z,12.17
2022-12-25T10:13:47.227Z,12.07
2022-12-25T10:16:26.649Z,11.96
2022-12-25T10:19:27.805Z,11.82
2022-12-25T10:22:05.027Z,11.77
2022-12-25T10:24:50.769Z,11.85
2022-12-25T10:27:25.966Z,11.94
2022-12-25T10:29:55.988Z,11.89
2022-12-25T10:32:25.380Z,11.84
2022-12-25T10:34:55.821Z,11.90
2022-12-25T10:37:25.781Z,12.14
2022-12-25T10:39:55.847Z,12.45
2022-12-25T10:42:43.058Z,12.67
2022-12-25T10:45:13.408Z,12.78
2022-12-25T10:47:43.524Z,12.73
2022-12-25T10:50:21.053Z,12.72
2022-12-25T10:53:07.625Z,12.65
2022-12-25T10:55:37.756Z,12.75
2022-12-25T10:58:08.094Z,12.73
2022-12-25T11:00:39.140Z,12.63
2022-12-25T11:03:24.678Z,12.51
2022-12-25T11:05:55.338Z,12.35
2022-12-25T11:08:28.337Z,12.26
2022-12-25T11:11:06.995Z,12.20
2022-12-25T11:13:40.913Z,12.05
2022-12-25T11:16:15.509Z,11.93
2022-12-25T11:18:51.438Z,11.90
2022-12-25T11:21:25.637Z,11.85
2022-12-25T11:24:05.128Z,11.82
2022-12-25T11:26:49.892Z,12.05
2022-12-25T11:29:41.502Z,12.22
2022-12-25T11:32:21.510Z,12.26
2022-12-25T11:34:56.423Z,12.62
2022-12-25T11:38:01.437Z,12.92
2022-12-25T11:40:47.928Z,13.09
2022-12-25T11:43:22.756Z,13.09
2022-12-25T11:46:01.379Z,12.92
2022-12-25T11:48:56.589Z,12.99
2022-12-25T11:51:34.069Z,13.04
2022-12-25T11:54:13.084Z,13.01
2022-12-25T11:56:43.971Z,12.94
2022-12-25T11:59:39.376Z,12.94
2022-12-25T12:02:24.311Z,12.96
2022-12-25T12:05:10.056Z,12.96
2022-12-25T12:07:54.202Z,12.95
2022-12-25T12:10:51.524Z,12.87
2022-12-25T12:13:44.985Z,12.69
2022-12-25T12:16:15.202Z,12.55
2022-12-25T12:18:50.360Z,12.57
2022-12-25T12:21:29.623Z,12.65
2022-12-25T12:24:21.080Z,12.64
2022-12-25T12:27:14.268Z,12.60
2022-12-25T12:29:52.179Z,12.52
2022-12-25T12:32:42.244Z,12.52
2022-12-25T12:35:28.817Z,12.81
2022-12-25T12:38:07.076Z,13.11
2022-12-25T12:40:44.549Z,13.23
2022-12-25T12:43:25.039Z,13.45
2022-12-25T12:46:08.035Z,13.65
2022-12-25T12:48:44.537Z,13.60
2022-12-25T12:51:28.610Z,13.57
2022-12-25T12:54:24.841Z,13.43
2022-12-25T12:57:23.396Z,13.60
2022-12-25T12:59:54.503Z,13.93
2022-12-25T13:02:50.719Z,14.03
2022-12-25T13:05:50.529Z,13.98
2022-12-25T13:08:52.525Z,13.85
2022-12-25T13:11:31.858Z,13.71
2022-12-25T13:14:03.596Z,13.66
2022-12-25T13:16:41.505Z,13.63
2022-12-25T13:19:28.184Z,13.57
2022-12-25T13:22:04.108Z,13.54
2022-12-25T13:24:37.306Z,13.49
2022-12-25T13:27:28.134Z,13.28
2022-12-25T13:29:59.121Z,12.97
2022-12-25T13:32:34.014Z,12.73
2022-12-25T13:35:05.160Z,12.44
2022-12-25T13:37:35.621Z,12.34
2022-12-25T13:40:19.800Z,12.19
2022-12-25T13:42:52.026Z,11.90
2022-12-25T13:45:24.243Z,11.65
2022-12-25T13:47:56.063Z,11.48
2022-12-25T13:50:33.876Z,11.35
2022-12-25T13:53:16.890Z,11.25
2022-12-25T13:55:52.968Z,11.04
2022-12-25T13:58:31.139Z,10.66
2022-12-25T14:01:02.036Z,10.25
2022-12-25T14:03:37.042Z,9.95
2022-12-25T14:06:21.861Z,9.90
2022-12-25T14:08:53.722Z,9.83
2022-12-25T14:11:25.816Z,9.72
2022-12-25T14:14:00.655Z,9.61
2022-12-25T14:16:31.219Z,9.45
2022-12-25T14:19:03.958Z,9.33
2022-12-25T14:21:50.620Z,9.25
2022-12-25T14:24:22.717Z,9.11
2022-12-25T14:27:03.552Z,9.05
2022-12-25T14:29:43.727Z,9.01
2022-12-25T14:32:20.987Z,8.94
2022-12-25T14:34:59.872Z,8.88
2022-12-25T14:37:33.231Z,8.81
2022-12-25T14:40:24.407Z,8.74
2022-12-25T14:43:06.311Z,8.63
2022-12-25T14:45:41.230Z,8.53
2022-12-25T14:48:25.465Z,8.43
2022-12-25T14:51:06.352Z,8.33
2022-12-25T14:53:48.776Z,8.16
2022-12-25T14:56:21.604Z,7.99
2022-12-25T14:58:55.430Z,7.89
2022-12-25T15:01:37.438Z,7.78
2022-12-25T15:04:12.504Z,7.70
2022-12-25T15:07:00.799Z,7.58
2022-12-25T15:09:31.003Z,7.44
2022-12-25T15:12:01.028Z,7.30
2022-12-25T15:14:31.996Z,7.14
2022-12-25T15:17:02.302Z,6.89
2022-12-25T15:19:38.283Z,6.68
2022-12-25T15:22:12.933Z,6.51
2022-12-25T15:24:43.000Z,6.35
2022-12-25T15:27:19.230Z,6.29
2022-12-25T15:32:41.119Z,6.13
2022-12-25T15:35:19.833Z,6.04
2022-12-25T15:37:51.280Z,5.94
2022-12-25T15:40:21.924Z,5.89
2022-12-25T15:42:56.341Z,5.85
2022-12-25T15:45:29.585Z,5.77
2022-12-25T15:48:00.281Z,5.69
2022-12-25T15:50:30.853Z,5.65
2022-12-25T15:52:59.957Z,5.62
2022-12-25T15:55:29.989Z,5.54
2022-12-25T15:58:00.249Z,5.46
2022-12-25T16:00:29.497Z,5.36
2022-12-25T16:02:59.663Z,5.27
2022-12-25T16:05:29.593Z,5.21
2022-12-25T16:07:59.627Z,5.14
2022-12-25T16:10:36.668Z,5.03
2022-12-25T16:13:09.302Z,4.94
2022-12-25T16:15:39.851Z,4.87
2022-12-25T16:18:10.908Z,4.80
2022-12-25T16:20:41.321Z,4.72
2022-12-25T16:23:10.868Z,4.63
2022-12-25T16:25:42.542Z,4.55
2022-12-25T16:28:12.653Z,4.50
2022-12-25T16:30:43.270Z,4.46
2022-12-25T16:33:13.664Z,4.40
2022-12-25T16:35:44.715Z,4.35
2022-12-25T16:38:14.877Z,4.28
2022-12-25T16:40:45.801Z,4.18
2022-12-25T16:43:21.893Z,4.09
2022-12-25T16:45:55.143Z,4.02
2022-12-25T16:48:25.457Z,3.97
2022-12-25T16:50:55.797Z,3.85
2022-12-25T16:53:25.878Z,3.78
2022-12-25T16:56:15.243Z,3.68
2022-12-25T16:58:47.011Z,3.54
2022-12-25T17:01:20.792Z,3.43
2022-12-25T17:03:51.912Z,3.34
2022-12-25T17:06:25.319Z,3.23
2022-12-25T17:08:58.809Z,3.09
2022-12-25T17:11:30.455Z,2.99
2022-12-25T17:14:03.952Z,2.94
2022-12-25T17:16:36.073Z,2.88
2022-12-25T17:19:11.926Z,2.85
2022-12-25T17:21:42.734Z,2.77
2022-12-25T17:24:13.314Z,2.72
2022-12-25T17:26:44.420Z,2.69
2022-12-25T17:29:21.941Z,2.63
2022-12-25T17:31:53.743Z,2.55
2022-12-25T17:34:24.090Z,2.48
2022-12-25T17:36:55.071Z,2.41
2022-12-25T17:39:25.680Z,2.33
2022-12-25T17:41:55.685Z,2.21
2022-12-25T17:44:26.128Z,2.14
2022-12-25T17:46:56.092Z,2.07
2022-12-25T17:49:26.563Z,2.00
2022-12-25T17:51:56.908Z,1.96
2022-12-25T17:54:27.491Z,1.91
2022-12-25T17:56:56.631Z,1.89
2022-12-25T17:59:30.138Z,1.85
2022-12-25T18:02:01.091Z,1.78
2022-12-25T18:04:30.933Z,1.75
2022-12-25T18:07:01.414Z,1.74
2022-12-25T18:09:31.619Z,1.71
2022-12-25T18:12:01.998Z,1.69
2022-12-25T18:14:32.330Z,1.62
2022-12-25T18:17:02.596Z,1.54
2022-12-25T18:19:33.310Z,1.50
2022-12-25T18:22:03.390Z,1.48
2022-12-25T18:24:33.659Z,1.49
2022-12-25T18:27:06.730Z,1.46
2022-12-25T18:29:36.941Z,1.41
2022-12-25T18:32:07.213Z,1.38
2022-12-25T18:34:37.918Z,1.33
2022-12-25T18:37:08.082Z,1.25
2022-12-25T18:39:40.566Z,1.19
2022-12-25T18:42:33.118Z,1.15
2022-12-25T18:45:03.681Z,1.08
2022-12-25T18:47:35.761Z,1.05
2022-12-25T18:50:07.583Z,1.01
2022-12-25T18:52:49.766Z,0.97
2022-12-25T18:55:22.074Z,0.93
2022-12-25T18:57:52.490Z,0.90
2022-12-25T19:00:22.902Z,0.90
2022-12-25T19:02:58.761Z,0.91
2022-12-25T19:05:29.179Z,0.91
2022-12-25T19:07:59.150Z,0.90
2022-12-25T19:10:31.485Z,0.86
2022-12-25T19:13:01.923Z,0.84
2022-12-25T19:15:30.700Z,0.84
2022-12-25T19:18:01.145Z,0.82
2022-12-25T19:20:31.454Z,0.81
2022-12-25T19:23:01.809Z,0.80
2022-12-25T19:25:31.575Z,0.80
2022-12-25T19:28:01.901Z,0.79
2022-12-25T19:30:31.943Z,0.76
2022-12-25T19:33:01.858Z,0.72
2022-12-25T19:35:31.030Z,0.67
2022-12-25T19:38:01.400Z,0.66
2022-12-25T19:40:39.243Z,0.63
2022-12-25T19:43:12.882Z,0.62
2022-12-25T19:45:42.492Z,0.59
2022-12-25T19:48:12.950Z,0.54
2022-12-25T19:50:44.311Z,0.49
2022-12-25T19:53:17.248Z,0.46
2022-12-25T19:55:55.223Z,0.42
2022-12-25T19:58:36.524Z,0.41
2022-12-25T20:01:11.390Z,0.38
2022-12-25T20:03:50.450Z,0.36
2022-12-25T20:06:26.739Z,0.33
2022-12-25T20:09:00.051Z,0.31
2022-12-25T20:11:32.227Z,0.25
2022-12-25T20:14:04.054Z,0.18
2022-12-25T20:16:41.148Z,0.14
2022-12-25T20:19:15.449Z,0.14
2022-12-25T20:21:46.282Z,0.14
2022-12-25T20:24:16.697Z,0.13
2022-12-25T20:26:48.272Z,0.12
2022-12-25T20:29:19.272Z,0.11
2022-12-25T20:31:49.464Z,0.11
2022-12-25T20:57:42.975Z,-0.22
2022-12-25T21:05:56.590Z,-0.26
2022-12-25T21:08:27.453Z,-0.24
2022-12-25T21:11:01.405Z,-0.23
2022-12-25T21:13:33.593Z,-0.24
2022-12-25T21:16:07.980Z,-0.25
2022-12-25T21:18:41.253Z,-0.27
2022-12-25T21:21:14.220Z,-0.34
2022-12-25T21:23:46.125Z,-0.39
2022-12-25T21:26:27.106Z,-0.40
2022-12-25T21:29:00.650Z,-0.42
2022-12-25T21:31:55.810Z,-0.45
2022-12-25T21:34:30.951Z,-0.49
2022-12-25T21:37:01.197Z,-0.60
2022-12-25T21:39:31.680Z,-0.62
2022-12-25T21:42:04.826Z,-0.62
2022-12-25T21:44:35.290Z,-0.63
2022-12-25T21:47:05.489Z,-0.66
2022-12-25T21:49:54.953Z,-0.66
2022-12-25T21:52:24.989Z,-0.64
2022-12-25T21:54:54.209Z,-0.64
2022-12-25T21:57:24.251Z,-0.65
2022-12-25T21:59:56.250Z,-0.65
2022-12-25T22:02:26.462Z,-0.68
2022-12-25T22:04:58.974Z,-0.70
2022-12-25T22:07:29.585Z,-0.73
2022-12-25T22:09:59.995Z,-0.76
2022-12-25T22:12:49.978Z,-0.80
2022-12-25T22:15:20.184Z,-0.84
2022-12-25T22:18:09.748Z,-0.83
2022-12-25T22:20:39.980Z,-0.87
2022-12-25T22:23:10.262Z,-0.88
2022-12-25T22:25:40.588Z,-0.91
2022-12-25T22:28:10.913Z,-0.94
2022-12-25T22:30:44.694Z,-0.98
2022-12-25T22:33:16.899Z,-1.00
2022-12-25T22:35:47.868Z,-1.06
2022-12-25T22:38:19.630Z,-1.12
2022-12-25T22:40:50.132Z,-1.16
2022-12-25T22:43:21.312Z,-1.20
2022-12-25T22:45:52.626Z,-1.20
2022-12-25T22:48:23.607Z,-1.19
2022-12-25T22:50:54.548Z,-1.18
2022-12-25T22:53:25.635Z,-1.17
2022-12-25T22:55:56.605Z,-1.16
2022-12-25T22:58:27.081Z,-1.16
2022-12-25T23:00:57.904Z,-1.17
2022-12-25T23:03:29.370Z,-1.18
2022-12-25T23:06:01.484Z,-1.20
2022-12-25T23:08:32.534Z,-1.22
2022-12-25T23:11:04.492Z,-1.25
2022-12-25T23:13:53.572Z,-1.25
2022-12-25T23:16:26.134Z,-1.25
2022-12-25T23:19:17.408Z,-1.28
2022-12-25T23:22:07.406Z,-1.30
2022-12-25T23:24:58.231Z,-1.31
2022-12-25T23:27:29.715Z,-1.32
2022-12-25T23:30:00.449Z,-1.33
2022-12-25T23:32:31.156Z,-1.35
2022-12-25T23:35:02.335Z,-1.37
2022-12-25T23:37:32.931Z,-1.38
2022-12-25T23:40:04.749Z,-1.37
2022-12-25T23:42:35.584Z,-1.38
2022-12-25T23:45:06.781Z,-1.39
2022-12-25T23:47:37.866Z,-1.40
2022-12-25T23:50:09.465Z,-1.41
2022-12-25T23:52:40.347Z,-1.44
2022-12-25T23:55:11.037Z,-1.44
2022-12-25T23:57:41.077Z,-1.44
